Flight Track Log - Related Links

Times and Time Zones

All times are in EDT time to prevent confusion due to time zone crossing. See the SWA3675 flight status page for this flight to view local times or setup timezone preferences in your user account.

Time Position Orientation Groundspeed Altitude Reporting Facility
EDT Latitude Longitude Course Direction KTS MPH feet Rate Location/Type
Tue 05:51:29 PM 42.7319 -73.8081 169° South 149 171 1,200  Level Boston Center
Tue 05:51:47 PM 42.7192 -73.8164 206° Southwest 152 175 2,000 1,899 Climbing Boston Center
Tue 05:52:48 PM 42.6875 -73.8694 231° Southwest 248 285 3,700 2,537 Climbing Boston Center
Tue 05:53:50 PM 42.7406 -73.9497 312° West 300 345 7,200 3,098 Climbing Boston Center
Tue 05:54:50 PM 42.8000 -74.0247 317° Northwest 305 351 10,000 3,450 Climbing Boston Center
Tue 05:55:50 PM 42.8572 -74.1028 315° West 294 338 14,100 3,950 Climbing Boston Center
Tue 05:56:50 PM 42.8658 -74.2161 276° West 293 337 17,900 3,350 Climbing Boston Center
Tue 05:57:00 PM 42.2597 -74.2169 169° South  Level Estimated
Tue 05:57:50 PM 42.8206 -74.3111 237° Southwest 269 310 20,800  Level Boston Center
Tue 05:58:50 PM 42.7211 -74.2714 164° South 242 278 22,700 2,600 Climbing Boston Center
Tue 05:59:50 PM 42.6222 -74.2036 153° Southeast 323 372 26,000 2,650 Climbing Boston Center
Tue 06:00:50 PM 42.5272 -74.1389 153° Southeast 348 400 28,000 1,000 Climbing Boston Center
Tue 06:01:50 PM 42.4242 -74.0714 154° Southeast 383 441 28,000  Level Boston Center
Tue 06:02:50 PM 42.3128 -73.9928 152° Southeast 422 486 28,000  Level Boston Center
Tue 06:03:50 PM 42.1989 -73.9197 155° Southeast 449 517 28,000  Level Boston Center
Tue 06:04:50 PM 42.0914 -73.8669 160° South 454 522 28,000  Level Boston Center
Tue 06:05:50 PM 41.9678 -73.9033 192° South 442 509 28,000  Level Boston Center
Tue 06:06:50 PM 41.8483 -73.9533 197° South 441 507 28,000  Level Boston Center
Tue 06:07:50 PM 41.7331 -74.0008 197° South 441 507 28,000  Level Boston Center
Tue 06:09:54 PM 41.4914 -74.1028 198° South 449 517 28,000  Level New York Center
Tue 06:10:53 PM 41.3672 -74.1575 198° South 454 522 28,000 -50 Level New York Center
Tue 06:11:53 PM 41.2322 -74.2114 197° South 454 522 27,900 -600 Descending New York Center
Tue 06:12:53 PM 41.1122 -74.2603 197° South 460 529 26,800 -942 Descending New York Center
Tue 06:13:54 PM 40.9958 -74.3147 199° South 460 529 26,000 -403 Descending New York Center
Tue 06:14:52 PM 40.8778 -74.3636 197° South 450 518 26,000  Level New York Center
Tue 06:15:53 PM 40.7714 -74.4372 208° Southwest 431 496 26,000 -450 Level New York Center
Tue 06:16:52 PM 40.7372 -74.5917 254° West 401 461 25,100 -950 Descending New York Center
Tue 06:17:53 PM 40.7075 -74.7406 255° West 407 468 24,100 -958 Descending New York Center
Tue 06:18:51 PM 40.6406 -74.8706 236° Southwest 418 481 23,200 -958 Descending New York Center
Tue 06:19:52 PM 40.5756 -74.9953 236° Southwest 423 487 22,200 -984 Descending New York Center
Tue 06:20:53 PM 40.5106 -75.1194 235° Southwest 423 487 21,200 -1,000 Descending New York Center
Tue 06:21:52 PM 40.4197 -75.2119 218° Southwest 410 472 20,200 -1,008 Descending New York Center
Tue 06:22:52 PM 40.3308 -75.2986 217° Southwest 410 472 19,200 -942 Descending New York Center
Tue 06:23:53 PM 40.2447 -75.3719 213° Southwest 410 472 18,300 -595 Descending New York Center
Tue 06:24:53 PM 40.1517 -75.4581 215° Southwest 415 478 18,000 -149 Descending New York Center
Tue 06:25:54 PM 40.0542 -75.5492 216° Southwest 415 478 18,000 -50 Level New York Center
Tue 06:26:52 PM 39.9719 -75.6222 214° Southwest 410 472 17,900 -605 Descending New York Center
Tue 06:27:53 PM 39.8864 -75.7300 224° Southwest 397 457 16,800 -992 Descending New York Center
Tue 06:28:53 PM 39.8339 -75.8342 237° Southwest 395 455 15,900 -1,013 Descending New York Center
Tue 06:30:33 PM 39.7333 -76.0333 237° Southwest 374 430 14,100 -1,006 Descending Potomac TRACON
Tue 06:31:34 PM 39.6667 -76.1333 229° Southwest 368 423 13,200 -942 Descending Potomac TRACON
Tue 06:32:34 PM 39.6167 -76.2500 241° Southwest 361 415 12,200 -1,050 Descending Potomac TRACON
Tue 06:33:34 PM 39.5500 -76.3500 229° Southwest 334 384 11,100 -1,200 Descending Potomac TRACON
Tue 06:34:34 PM 39.5333 -76.4667 260° West 300 345 9,800 -1,350 Descending Potomac TRACON
Tue 06:35:34 PM 39.5167 -76.5667 258° West 288 331 8,400 -1,550 Descending Potomac TRACON
Tue 06:36:34 PM 39.5167 -76.6667 270° West 288 331 6,700 -1,587 Descending Potomac TRACON
Tue 06:37:35 PM 39.5000 -76.7667 258° West 287 330 5,200 -843 Descending Potomac TRACON
Tue 06:38:35 PM 39.4667 -76.8500 243° Southwest 280 322 5,000 -600 Descending Potomac TRACON
Tue 06:39:35 PM 39.4167 -76.9333 232° Southwest 282 325 4,000 -500 Descending Potomac TRACON
Tue 06:40:35 PM 39.3667 -76.9667 207° Southwest 236 272 4,000  Level Potomac TRACON
Tue 06:41:35 PM 39.3000 -76.9500 169° South 224 258 4,000  Level Potomac TRACON
Tue 06:42:35 PM 39.2500 -76.9500 180° South 229 264 4,000  Level Potomac TRACON
Tue 06:43:35 PM 39.2000 -77.0000 218° Southwest 199 229 4,000  Level Potomac TRACON
Tue 06:44:35 PM 39.1833 -76.9500 113° Southeast 154 177 4,000 -450 Level Potomac TRACON
Tue 06:45:35 PM 39.1833 -76.9167 90° East 133 153 3,100 -650 Descending Potomac TRACON
Tue 06:46:35 PM 39.1833 -76.8667 90° East 131 151 2,700 -500 Descending Potomac TRACON
Tue 06:47:35 PM 39.1833 -76.8167 90° East 131 151 2,100 -600 Descending Potomac TRACON

Login

Don't have an account? Register now (free) for customized features, flight alerts, and more!